Time;durP1;ratioP1;P1;durP2;ratioP2;P2;SDS_P1;SDS_P2;PMS_P1;PMS_P2;Temp;Humidity;BMP_temperature;BMP_pressure;BME280_temperature;BME280_humidity;BME280_pressure;Samples;Min_cycle;Max_cycle;Signal;HPM_P1;HPM_P2
2023/03/03 00:01:58;;;;;;;;;57.25;42.00;;;;;8.36;50.34;101731.72;4878961;29;45333;-85
2023/03/03 00:04:23;;;;;;;;;57.75;47.50;;;;;8.31;50.19;101720.25;4876507;29;47964;-85
2023/03/03 00:06:49;;;;;;;;;53.75;46.00;;;;;8.37;50.16;101736.16;4866573;29;45622;-85
2023/03/03 00:09:14;;;;;;;;;61.75;50.25;;;;;8.34;50.24;101733.53;4882565;29;45348;-85
2023/03/03 00:11:39;;;;;;;;;42.50;37.75;;;;;8.28;50.49;101736.22;4853696;29;45435;-85
2023/03/03 00:14:18;;;;;;;;;59.75;47.50;;;;;8.25;50.41;101726.50;4849537;29;54573;-85
2023/03/03 00:16:44;;;;;;;;;55.50;48.00;;;;;8.22;50.35;101726.50;4866415;29;45837;-85
2023/03/03 00:19:18;;;;;;;;;59.50;48.50;;;;;8.25;50.24;101730.91;4866524;29;45249;-85
2023/03/03 00:21:45;;;;;;;;;55.25;45.50;;;;;8.20;50.20;101722.97;4853778;29;45420;-85
2023/03/03 00:24:16;;;;;;;;;58.00;47.50;;;;;8.18;50.17;101737.19;4866148;29;45419;-85
2023/03/03 00:26:56;;;;;;;;;50.50;42.75;;;;;8.01;50.19;101708.91;4854514;29;45879;-85
2023/03/03 00:29:39;;;;;;;;;53.00;41.25;;;;;8.13;50.66;101731.88;4877389;29;45395;-84
2023/03/03 00:32:13;;;;;;;;;56.00;45.75;;;;;8.17;50.29;101736.31;4880526;29;45369;-85
2023/03/03 00:34:40;;;;;;;;;57.50;46.25;;;;;8.11;50.38;101729.22;4891888;29;46302;-85
2023/03/03 00:37:22;;;;;;;;;53.00;43.50;;;;;8.12;50.49;101735.44;4881376;29;45343;-85
2023/03/03 00:39:47;;;;;;;;;54.75;45.50;;;;;8.11;50.42;101728.34;4897508;29;45279;-85
2023/03/03 00:42:17;;;;;;;;;54.75;44.75;;;;;8.15;50.38;101736.31;4884794;29;45471;-84
2023/03/03 00:44:56;;;;;;;;;54.50;42.00;;;;;8.06;50.55;101728.38;4895874;28;46336;-85
2023/03/03 00:47:37;;;;;;;;;59.25;46.00;;;;;8.04;50.64;101737.28;4889649;29;45292;-85
2023/03/03 00:50:05;;;;;;;;;53.75;45.00;;;;;7.94;50.40;101733.78;4891471;29;45346;-85
2023/03/03 00:52:35;;;;;;;;;58.75;45.25;;;;;7.70;50.89;101702.88;4895014;28;45426;-85
2023/03/03 00:55:01;;;;;;;;;57.75;45.50;;;;;7.82;50.84;101731.16;4891899;28;45645;-85
2023/03/03 00:57:26;;;;;;;;;47.75;41.75;;;;;7.82;51.14;101732.06;4867692;29;45333;-85
2023/03/03 00:59:51;;;;;;;;;45.50;40.50;;;;;7.75;50.98;101720.59;4873156;29;45418;-85
2023/03/03 01:02:16;;;;;;;;;54.00;43.00;;;;;7.63;51.21;101710.00;4886435;29;45569;-85
2023/03/03 01:04:47;;;;;;;;;50.00;42.25;;;;;7.76;50.87;101730.31;4892197;29;45415;-85
2023/03/03 01:07:13;;;;;;;;;54.75;45.50;;;;;7.74;50.85;101723.25;4896105;29;45761;-85
2023/03/03 01:09:38;;;;;;;;;58.75;44.50;;;;;7.78;50.88;101731.22;4875193;29;45498;-85
2023/03/03 01:12:04;;;;;;;;;49.75;41.50;;;;;7.67;51.33;101706.44;4900775;29;45682;-85
2023/03/03 01:14:29;;;;;;;;;52.50;43.25;;;;;7.79;51.03;101738.28;4891752;29;45541;-85
2023/03/03 01:16:54;;;;;;;;;59.25;47.50;;;;;7.67;51.01;101722.41;4887714;29;45394;-85
2023/03/03 01:19:20;;;;;;;;;59.75;46.25;;;;;7.70;51.06;101729.44;4893924;28;45267;-85
2023/03/03 01:21:45;;;;;;;;;44.50;38.25;;;;;7.69;51.36;101733.91;4895518;29;45452;-85
2023/03/03 01:24:10;;;;;;;;;60.50;47.00;;;;;7.69;51.38;101720.59;4882827;29;47273;-85
2023/03/03 01:26:36;;;;;;;;;49.50;39.75;;;;;7.74;51.23;101741.84;4889293;28;45292;-85
2023/03/03 01:29:01;;;;;;;;;54.75;43.50;;;;;7.72;51.03;101746.31;4872890;29;45378;-85
2023/03/03 01:31:26;;;;;;;;;55.00;44.25;;;;;7.61;50.91;101739.22;4895561;28;45490;-84
2023/03/03 01:33:52;;;;;;;;;55.25;44.75;;;;;7.48;51.04;101726.00;4884233;28;45976;-84
2023/03/03 01:36:23;;;;;;;;;60.25;48.25;;;;;7.47;51.13;101727.78;4883675;29;45333;-85
2023/03/03 01:38:48;;;;;;;;;55.00;41.25;;;;;7.56;51.65;101754.31;4884148;29;45274;-85
2023/03/03 01:41:13;;;;;;;;;59.75;47.75;;;;;7.52;51.50;101757.88;4883550;29;50199;-85
2023/03/03 01:43:44;;;;;;;;;46.50;39.50;;;;;7.48;51.87;101744.59;4884423;28;45319;-84
2023/03/03 01:46:28;;;;;;;;;56.00;44.50;;;;;7.45;51.88;101747.28;4883489;29;45394;-84
2023/03/03 01:49:05;;;;;;;;;58.50;45.25;;;;;7.31;51.70;101726.06;4883640;29;45438;-85
2023/03/03 01:52:10;;;;;;;;;54.75;44.75;;;;;7.41;51.65;101741.09;4901088;29;45498;-85
2023/03/03 01:54:41;;;;;;;;;60.50;47.25;;;;;7.34;51.53;101742.88;4849159;28;45602;-85
2023/03/03 01:57:14;;;;;;;;;58.75;46.50;;;;;7.16;52.37;101709.28;4877132;29;46081;-85
2023/03/03 01:59:45;;;;;;;;;52.00;42.00;;;;;7.26;52.09;101723.44;4893239;29;45271;-85
2023/03/03 02:02:10;;;;;;;;;51.75;42.00;;;;;7.30;52.85;101729.59;4896671;29;45320;-86
2023/03/03 02:04:35;;;;;;;;;55.50;43.25;;;;;7.29;52.53;101736.69;4892343;29;45971;-85
2023/03/03 02:07:06;;;;;;;;;56.75;46.50;;;;;7.34;52.24;101740.22;4887106;28;45461;-85
2023/03/03 02:09:49;;;;;;;;;54.75;44.25;;;;;7.34;52.26;101740.22;4902817;29;45577;-85
2023/03/03 02:12:17;;;;;;;;;53.75;45.00;;;;;7.25;52.52;101711.06;4902436;29;45223;-84
2023/03/03 02:14:42;;;;;;;;;55.75;41.75;;;;;7.28;52.50;101720.75;4880814;29;48166;-85
2023/03/03 02:17:08;;;;;;;;;51.75;43.75;;;;;7.39;52.17;101738.44;4900650;28;46725;-85
2023/03/03 02:20:05;;;;;;;;;55.00;44.50;;;;;7.26;52.48;101712.81;4888278;29;45504;-84
2023/03/03 02:22:55;;;;;;;;;55.00;44.50;;;;;7.19;51.96;101703.09;4884497;29;45487;-85
2023/03/03 02:25:44;;;;;;;;;54.00;41.25;;;;;7.19;52.08;101711.06;4902559;28;46521;-84
2023/03/03 02:28:09;;;;;;;;;53.00;43.75;;;;;7.27;52.14;101716.31;4895648;29;45347;-84
2023/03/03 02:30:38;;;;;;;;;58.00;41.50;;;;;7.27;52.59;101726.94;4876720;29;45365;-84
2023/03/03 02:33:05;;;;;;;;;54.25;44.75;;;;;7.30;52.43;101726.94;4907758;28;45568;-85
2023/03/03 02:35:33;;;;;;;;;51.25;43.25;;;;;7.29;52.26;101733.16;4903602;28;46389;-85
2023/03/03 02:38:22;;;;;;;;;52.25;45.25;;;;;7.22;52.39;101721.69;4886201;29;45393;-84
2023/03/03 02:41:02;;;;;;;;;51.50;44.00;;;;;7.20;52.29;101715.47;4872180;29;45324;-85
2023/03/03 02:43:51;;;;;;;;;54.50;42.25;;;;;7.04;52.68;101706.66;4887290;29;45462;-85
2023/03/03 02:46:16;;;;;;;;;56.00;44.75;;;;;7.02;52.37;101701.38;4885973;29;45572;-85
2023/03/03 02:48:41;;;;;;;;;52.00;43.75;;;;;7.09;52.54;101711.97;4886197;29;45256;-85
2023/03/03 02:51:07;;;;;;;;;55.75;44.50;;;;;7.01;52.73;101711.97;4894740;28;45393;-85
2023/03/03 02:53:32;;;;;;;;;43.25;39.50;;;;;6.95;52.91;101715.53;4895304;29;47300;-85
2023/03/03 02:55:57;;;;;;;;;60.00;47.25;;;;;7.02;52.83;101732.34;4886038;29;45273;-85
2023/03/03 02:58:23;;;;;;;;;59.00;45.00;;;;;6.97;53.37;101728.81;4889511;28;45452;-85
2023/03/03 03:00:48;;;;;;;;;47.75;40.25;;;;;6.91;52.82;101702.28;4885834;29;45261;-85
2023/03/03 03:03:13;;;;;;;;;58.25;45.75;;;;;7.08;53.04;101726.13;4874017;29;45826;-85
2023/03/03 03:05:39;;;;;;;;;54.00;43.75;;;;;7.08;52.87;101723.47;4903087;29;45359;-85
2023/03/03 03:08:05;;;;;;;;;50.00;43.00;;;;;6.91;53.29;101702.28;4894150;29;45458;-85
2023/03/03 03:10:30;;;;;;;;;62.75;46.25;;;;;6.97;53.30;101729.69;4899288;29;45816;-84
2023/03/03 03:12:55;;;;;;;;;57.75;45.00;;;;;6.80;53.60;101702.28;4885761;29;45241;-85
2023/03/03 03:15:21;;;;;;;;;59.50;45.50;;;;;6.95;53.54;101731.47;4901890;28;45457;-85
2023/03/03 03:17:46;;;;;;;;;58.00;46.75;;;;;6.80;53.01;101703.19;4875980;29;45481;-85
2023/03/03 03:20:12;;;;;;;;;62.25;45.50;;;;;6.79;53.74;101709.38;4889610;29;45329;-85
2023/03/03 03:22:37;;;;;;;;;59.25;45.75;;;;;6.76;53.23;101713.78;4893688;29;45660;-84
2023/03/03 03:25:03;;;;;;;;;55.25;45.25;;;;;6.78;53.61;101725.28;4875120;29;47167;-85
2023/03/03 03:27:28;;;;;;;;;60.00;48.00;;;;;6.73;53.49;101730.59;4890816;28;45309;-85
2023/03/03 03:29:53;;;;;;;;;54.00;40.00;;;;;6.76;53.96;101727.94;4891824;29;45254;-85
2023/03/03 03:32:19;;;;;;;;;54.25;41.25;;;;;6.75;54.37;101728.84;4885569;29;47106;-85
2023/03/03 03:34:44;;;;;;;;;53.00;44.50;;;;;6.75;54.22;101734.16;4892735;29;47487;-85
2023/03/03 03:37:10;;;;;;;;;52.00;41.75;;;;;6.70;53.66;101727.97;4885436;29;45392;-85
2023/03/03 03:39:35;;;;;;;;;57.25;46.75;;;;;6.58;54.26;101704.97;4900629;28;45608;-85
2023/03/03 03:42:00;;;;;;;;;59.00;48.00;;;;;6.73;54.92;101724.41;4904464;29;45378;-85
2023/03/03 03:44:26;;;;;;;;;54.00;45.50;;;;;6.73;54.14;101725.28;4887337;29;45247;-85
2023/03/03 03:46:52;;;;;;;;;56.25;48.75;;;;;6.71;54.32;101727.06;4899978;28;45251;-85
2023/03/03 03:49:17;;;;;;;;;61.25;49.50;;;;;6.68;54.76;101721.75;4888354;29;45298;-85
2023/03/03 03:51:42;;;;;;;;;56.50;45.25;;;;;6.67;54.16;101731.50;4894092;29;45332;-85
2023/03/03 03:54:08;;;;;;;;;65.00;51.75;;;;;6.57;55.09;101731.50;4895203;29;45267;-85
2023/03/03 03:56:33;;;;;;;;;52.75;42.25;;;;;6.53;54.79;101727.94;4886618;28;45287;-85
2023/03/03 03:58:59;;;;;;;;;52.25;43.50;;;;;6.55;54.91;101744.75;4885432;29;45364;-85
2023/03/03 04:01:25;;;;;;;;;57.50;45.50;;;;;6.52;55.47;101736.81;4895450;29;45491;-85
2023/03/03 04:03:51;;;;;;;;;59.25;48.00;;;;;6.49;54.69;101731.50;4888928;29;48069;-85
2023/03/03 04:06:16;;;;;;;;;54.50;45.25;;;;;6.50;54.74;101735.94;4887244;29;45395;-85
2023/03/03 04:08:42;;;;;;;;;61.75;47.25;;;;;6.49;55.08;101745.63;4900216;28;45413;-85
2023/03/03 04:11:07;;;;;;;;;54.75;46.00;;;;;6.43;55.14;101740.34;4893528;29;45394;-85
2023/03/03 04:13:34;;;;;;;;;57.75;48.25;;;;;6.42;55.39;101737.69;4884896;29;45330;-85
2023/03/03 04:16:00;;;;;;;;;60.75;46.00;;;;;6.45;55.84;101750.97;4884910;29;45336;-85
2023/03/03 04:18:25;;;;;;;;;64.50;49.00;;;;;6.34;55.76;101726.19;4885103;29;45373;-85
2023/03/03 04:20:51;;;;;;;;;66.25;49.75;;;;;6.35;55.58;101723.53;4897165;28;45437;-85
2023/03/03 04:23:18;;;;;;;;;60.00;48.75;;;;;6.34;55.84;101727.06;4898795;29;45583;-85
2023/03/03 04:25:45;;;;;;;;;66.00;52.00;;;;;6.34;55.48;101726.19;4884724;29;45874;-85
2023/03/03 04:28:11;;;;;;;;;63.25;51.00;;;;;6.41;55.88;101739.44;4885364;29;45350;-85
2023/03/03 04:30:36;;;;;;;;;67.50;51.75;;;;;6.48;55.63;101749.19;4891471;29;45472;-85
2023/03/03 04:33:02;;;;;;;;;62.50;45.50;;;;;6.52;56.19;101760.69;4896279;28;45419;-85
2023/03/03 04:35:27;;;;;;;;;64.25;51.50;;;;;6.49;56.25;101750.06;4884927;29;45300;-85
2023/03/03 04:37:52;;;;;;;;;67.50;52.50;;;;;6.55;56.13;101762.44;4884738;29;45833;-85
2023/03/03 04:40:18;;;;;;;;;61.50;50.00;;;;;6.44;56.57;101742.09;4884845;29;45219;-85
2023/03/03 04:42:43;;;;;;;;;59.25;47.50;;;;;6.53;56.06;101757.13;4894757;28;45426;-85
2023/03/03 04:45:09;;;;;;;;;52.50;44.50;;;;;6.52;56.31;101760.69;4895044;29;45450;-85
2023/03/03 04:47:35;;;;;;;;;66.50;51.00;;;;;6.57;56.15;101764.22;4884805;29;45405;-85
2023/03/03 04:50:00;;;;;;;;;62.50;48.75;;;;;6.52;55.99;101759.81;4893969;29;45482;-86
2023/03/03 04:52:25;;;;;;;;;60.00;46.50;;;;;6.47;56.10;101768.63;4889946;29;45586;-85
2023/03/03 04:54:51;;;;;;;;;61.50;50.75;;;;;6.35;56.91;101763.31;4893793;29;45516;-85
2023/03/03 04:57:16;;;;;;;;;60.00;46.50;;;;;6.27;56.46;101765.94;4900625;29;45347;-85
2023/03/03 04:59:41;;;;;;;;;54.50;46.00;;;;;6.16;56.43;101749.13;4867351;29;54643;-84
2023/03/03 05:02:07;;;;;;;;;65.00;47.50;;;;;6.24;56.92;101765.06;4889604;28;45293;-85
2023/03/03 05:04:32;;;;;;;;;51.50;42.00;;;;;6.05;57.29;101740.28;4894516;29;46362;-85
2023/03/03 05:06:57;;;;;;;;;59.50;48.00;;;;;6.17;57.21;101763.28;4897822;28;45264;-85
2023/03/03 05:09:23;;;;;;;;;68.25;51.75;;;;;6.09;57.76;101747.34;4895583;29;45231;-85
2023/03/03 05:11:48;;;;;;;;;54.00;43.00;;;;;6.15;57.26;101752.66;4887533;29;45227;-85
2023/03/03 05:14:13;;;;;;;;;58.00;47.50;;;;;6.25;57.54;101764.19;4867256;29;45684;-85
2023/03/03 05:16:39;;;;;;;;;63.50;50.00;;;;;6.33;57.42;101769.47;4884186;29;45232;-85
2023/03/03 05:19:04;;;;;;;;;62.25;51.00;;;;;6.35;56.89;101765.97;4891728;28;48603;-85
2023/03/03 05:21:30;;;;;;;;;59.00;47.00;;;;;6.34;57.18;101766.84;4878147;29;46135;-85
2023/03/03 05:23:55;;;;;;;;;60.50;47.50;;;;;6.24;57.38;101760.63;4885099;29;45282;-85
2023/03/03 05:26:21;;;;;;;;;55.25;42.00;;;;;6.16;57.26;101748.25;4887854;29;45299;-85
2023/03/03 05:28:46;;;;;;;;;65.50;51.25;;;;;6.24;57.23;101754.44;4892638;28;45599;-85
2023/03/03 05:31:12;;;;;;;;;65.25;50.50;;;;;6.31;57.67;101758.88;4899116;29;45306;-85
2023/03/03 05:33:37;;;;;;;;;65.25;51.75;;;;;6.27;57.48;101760.63;4891365;29;45448;-85
2023/03/03 05:36:03;;;;;;;;;62.75;49.25;;;;;6.34;57.47;101763.31;4867598;29;45364;-85
2023/03/03 05:38:28;;;;;;;;;63.25;49.00;;;;;6.24;57.46;101747.38;4871995;29;46610;-85
2023/03/03 05:40:54;;;;;;;;;57.50;45.75;;;;;6.25;57.45;101737.66;4895541;28;45369;-85
2023/03/03 05:43:19;;;;;;;;;58.50;46.50;;;;;6.38;57.76;101773.03;4885389;28;45291;-85
2023/03/03 05:45:45;;;;;;;;;58.00;48.00;;;;;6.32;57.10;101765.97;4893852;29;45356;-85
2023/03/03 05:48:10;;;;;;;;;65.75;53.50;;;;;6.25;57.04;101756.22;4889101;29;45478;-85
2023/03/03 05:50:37;;;;;;;;;61.50;50.00;;;;;6.27;57.46;101771.25;4896247;29;45465;-86
2023/03/03 05:53:03;;;;;;;;;63.75;50.00;;;;;6.16;57.37;101751.78;4890001;29;45841;-85
2023/03/03 05:55:28;;;;;;;;;60.25;48.75;;;;;6.24;57.45;101768.59;4893593;29;45300;-85
2023/03/03 05:57:54;;;;;;;;;65.00;54.25;;;;;6.24;57.23;101773.88;4895956;29;45232;-85
2023/03/03 06:00:20;;;;;;;;;63.50;50.75;;;;;6.18;57.64;101762.38;4901361;29;45330;-85
2023/03/03 06:02:45;;;;;;;;;56.75;46.00;;;;;6.14;57.81;101763.28;4887730;29;45349;-85
2023/03/03 06:05:10;;;;;;;;;68.25;51.75;;;;;6.18;57.23;101773.00;4891646;28;45354;-85
2023/03/03 06:07:36;;;;;;;;;65.75;48.00;;;;;6.16;57.53;101772.09;4883343;29;45454;-85
2023/03/03 06:10:02;;;;;;;;;65.00;50.00;;;;;6.09;57.37;101774.72;4896395;28;46287;-85
2023/03/03 06:12:27;;;;;;;;;62.00;49.25;;;;;6.00;58.22;101780.03;4879385;29;45282;-85
2023/03/03 06:14:53;;;;;;;;;64.00;50.25;;;;;5.96;57.50;101787.91;4895789;29;45269;-85
2023/03/03 06:17:18;;;;;;;;;58.25;47.25;;;;;5.87;57.74;101773.75;4894374;29;45382;-85
2023/03/03 06:19:43;;;;;;;;;61.50;46.75;;;;;5.85;58.11;101783.47;4891893;29;46147;-85
2023/03/03 06:22:09;;;;;;;;;65.75;52.25;;;;;5.82;58.81;101786.09;4886841;29;45313;-86
2023/03/03 06:24:34;;;;;;;;;61.75;48.50;;;;;5.80;58.47;101774.63;4902301;29;45315;-85
2023/03/03 06:27:00;;;;;;;;;66.00;52.50;;;;;5.86;58.00;101785.22;4883603;28;45289;-85
2023/03/03 06:29:26;;;;;;;;;64.00;48.75;;;;;5.83;58.25;101782.59;4893692;28;46122;-85
2023/03/03 06:31:52;;;;;;;;;64.25;52.50;;;;;5.83;58.83;101798.50;4895463;28;45937;-85
2023/03/03 06:34:17;;;;;;;;;71.75;54.25;;;;;5.69;58.38;101784.28;4891749;28;45439;-85
2023/03/03 06:36:43;;;;;;;;;56.50;46.50;;;;;5.73;58.21;101801.94;4896284;29;45219;-81
2023/03/03 06:39:08;;;;;;;;;60.75;48.75;;;;;5.51;58.63;101772.72;4882250;29;47362;-91
2023/03/03 06:41:33;;;;;;;;;58.25;49.50;;;;;5.73;58.91;101817.84;4874409;29;45254;-90
2023/03/03 06:44:01;;;;;;;;;70.75;52.00;;;;;5.57;58.44;101803.66;4872386;29;45181;-88
2023/03/03 06:46:27;;;;;;;;;68.25;51.00;;;;;5.54;59.57;101811.56;4867489;29;45571;-90
2023/03/03 06:48:52;;;;;;;;;63.50;50.50;;;;;5.51;59.03;101815.09;4875278;29;45447;-89
2023/03/03 06:51:29;;;;;;;;;70.75;56.00;;;;;5.62;58.76;101840.75;4877201;29;45462;-89
2023/03/03 06:53:57;;;;;;;;;63.75;50.00;;;;;5.61;59.12;101831.91;4868162;29;45312;-90
2023/03/03 06:56:26;;;;;;;;;65.75;52.00;;;;;5.56;59.23;101825.69;4872293;29;45603;-88
2023/03/03 06:59:01;;;;;;;;;64.50;53.00;;;;;5.44;58.82;101817.69;4865960;29;48573;-89
2023/03/03 07:01:33;;;;;;;;;69.00;55.25;;;;;5.52;58.81;101842.47;4871956;29;47033;-91
2023/03/03 07:03:59;;;;;;;;;64.25;50.50;;;;;5.37;59.09;101827.38;4879783;29;45432;-90
2023/03/03 07:06:26;;;;;;;;;72.50;55.75;;;;;5.49;59.04;101856.56;4870049;29;45445;-90
2023/03/03 07:08:53;;;;;;;;;66.50;55.00;;;;;5.41;59.52;101852.97;4879326;29;47460;-92
2023/03/03 07:11:21;;;;;;;;;69.75;54.25;;;;;5.38;59.64;101850.34;4874590;29;45329;-90
2023/03/03 07:13:51;;;;;;;;;68.50;54.50;;;;;5.35;60.02;101859.13;4870455;29;45454;-89
2023/03/03 07:16:22;;;;;;;;;65.75;54.00;;;;;5.29;59.71;101852.91;4872689;29;45459;-91
2023/03/03 07:18:54;;;;;;;;;70.25;56.25;;;;;5.35;59.69;101864.44;4868359;29;46182;-91
2023/03/03 07:21:32;;;;;;;;;59.75;47.00;;;;;5.29;59.92;101872.31;4871428;29;45825;-90
2023/03/03 07:24:00;;;;;;;;;68.00;54.00;;;;;5.24;59.87;101854.63;4883731;29;45475;-88
2023/03/03 07:26:31;;;;;;;;;71.25;52.25;;;;;5.17;60.14;101857.22;4880536;29;45212;-90
2023/03/03 07:29:20;;;;;;;;;66.75;54.25;;;;;5.30;60.74;101860.84;4874096;29;45823;-88
2023/03/03 07:31:47;;;;;;;;;63.75;50.00;;;;;5.23;60.23;101848.47;4878533;29;45380;-90
2023/03/03 07:34:46;;;;;;;;;68.00;57.00;;;;;5.49;59.68;101875.09;4872883;29;45480;-90
2023/03/03 07:37:36;;;;;;;;;69.00;55.00;;;;;5.51;59.54;101883.97;4870923;29;45414;-91
2023/03/03 07:40:28;;;;;;;;;70.25;56.00;;;;;5.42;60.32;101865.34;4885626;29;45480;-90
2023/03/03 07:42:53;;;;;;;;;70.50;53.00;;;;;5.42;60.10;101864.47;4862699;29;45215;-89
2023/03/03 07:45:25;;;;;;;;;77.75;58.00;;;;;5.54;59.80;101876.00;4872698;29;45385;-89
2023/03/03 07:47:50;;;;;;;;;74.25;59.50;;;;;5.55;59.95;101877.81;4873028;29;45339;-88
2023/03/03 07:50:21;;;;;;;;;74.50;59.25;;;;;5.62;60.04;101877.84;4873554;29;47188;-86
2023/03/03 07:53:00;;;;;;;;;69.75;54.75;;;;;5.57;60.25;101876.03;4879528;29;45383;-85
2023/03/03 07:55:39;;;;;;;;;74.00;58.00;;;;;5.69;59.40;101892.91;4881652;29;47056;-87
2023/03/03 07:58:14;;;;;;;;;71.00;56.75;;;;;5.73;60.23;101903.53;4879242;29;46531;-85
2023/03/03 08:01:17;;;;;;;;;73.00;58.50;;;;;5.72;59.27;101908.81;4865678;29;47787;-85
2023/03/03 08:03:45;;;;;;;;;75.25;59.50;;;;;5.64;60.41;101898.16;4874871;29;45264;-86
2023/03/03 08:06:33;;;;;;;;;70.00;55.50;;;;;5.76;59.85;101915.91;4893251;29;45560;-85
2023/03/03 08:09:08;;;;;;;;;65.50;54.00;;;;;5.79;60.71;101915.03;4866318;29;45476;-85
2023/03/03 08:11:34;;;;;;;;;69.75;56.00;;;;;5.67;60.64;101894.66;4873435;29;47550;-84
2023/03/03 08:14:00;;;;;;;;;78.00;58.25;;;;;5.80;60.27;101917.69;4875984;29;45428;-85
2023/03/03 08:16:36;;;;;;;;;73.75;58.75;;;;;5.57;59.43;101883.13;4870524;29;45680;-84
2023/03/03 08:19:04;;;;;;;;;75.50;59.25;;;;;5.62;60.04;101904.34;4872971;29;45361;-83
2023/03/03 08:21:31;;;;;;;;;79.25;58.25;;;;;5.52;60.16;101893.66;4886422;29;47041;-83
2023/03/03 08:23:56;;;;;;;;;71.75;58.25;;;;;5.53;60.00;101892.81;4869148;29;46208;-83
2023/03/03 08:26:23;;;;;;;;;78.50;59.00;;;;;5.57;60.12;101891.06;4877893;29;45464;-85
2023/03/03 08:28:49;;;;;;;;;68.25;54.25;;;;;5.73;59.66;101918.53;4887171;29;45846;-83
2023/03/03 08:31:16;;;;;;;;;71.25;55.25;;;;;5.67;60.29;101905.25;4874691;29;48368;-84
2023/03/03 08:33:45;;;;;;;;;71.00;54.75;;;;;5.75;60.89;101912.38;4875419;29;46559;-85
2023/03/03 08:36:11;;;;;;;;;73.00;59.25;;;;;5.84;60.82;101931.84;4875514;29;45479;-86
2023/03/03 08:38:37;;;;;;;;;79.50;59.50;;;;;5.85;60.51;101931.88;4872670;29;45384;-85
2023/03/03 08:41:03;;;;;;;;;74.25;58.75;;;;;5.76;60.70;101915.91;4874469;29;45450;-86
2023/03/03 08:43:28;;;;;;;;;75.25;59.25;;;;;5.88;60.52;101937.19;4856280;29;45454;-86
2023/03/03 08:45:58;;;;;;;;;76.00;60.00;;;;;5.87;60.05;101938.06;4846745;29;45470;-85
2023/03/03 08:48:24;;;;;;;;;74.25;57.50;;;;;5.89;59.74;101941.59;4874002;29;45262;-85
2023/03/03 08:50:50;;;;;;;;;78.25;59.25;;;;;5.57;59.61;101877.81;4869265;29;45310;-86
2023/03/03 08:53:17;;;;;;;;;74.25;57.75;;;;;5.91;60.15;101938.97;4868001;29;45237;-85
2023/03/03 08:55:42;;;;;;;;;71.50;57.00;;;;;5.86;60.05;101935.38;4868464;29;45426;-85
2023/03/03 08:58:07;;;;;;;;;77.75;57.75;;;;;5.71;59.43;101915.88;4873743;29;45280;-86
2023/03/03 09:00:34;;;;;;;;;76.00;59.50;;;;;5.54;60.13;101913.09;4874044;29;45439;-86
2023/03/03 09:02:59;;;;;;;;;81.00;61.75;;;;;5.72;60.52;101946.78;4869415;29;45432;-85
2023/03/03 09:05:25;;;;;;;;;76.75;59.75;;;;;5.58;59.95;101929.94;4848021;29;45460;-85
2023/03/03 09:07:51;;;;;;;;;71.75;58.50;;;;;5.72;60.41;101948.56;4873738;29;45443;-85
2023/03/03 09:10:26;;;;;;;;;71.75;54.75;;;;;5.79;60.89;101949.50;4872234;29;46345;-86
2023/03/03 09:12:52;;;;;;;;;78.25;61.00;;;;;5.87;60.30;101953.06;4860014;29;45908;-87
2023/03/03 09:15:28;;;;;;;;;77.75;58.25;;;;;5.87;60.71;101946.00;4876399;29;45624;-87
2023/03/03 09:17:58;;;;;;;;;82.50;62.50;;;;;5.89;60.45;101943.38;4878822;29;45504;-88
2023/03/03 09:20:32;;;;;;;;;67.50;57.00;;;;;5.78;60.21;101938.00;4870563;29;45462;-90
2023/03/03 09:23:15;;;;;;;;;71.25;55.00;;;;;5.83;60.18;101945.97;4864067;29;45411;-87
2023/03/03 09:25:41;;;;;;;;;67.50;53.25;;;;;5.66;60.20;101933.47;4863854;29;45456;-88
2023/03/03 09:28:18;;;;;;;;;79.25;58.50;;;;;5.66;60.12;101938.78;4874873;29;45349;-85
2023/03/03 09:30:48;;;;;;;;;75.00;61.50;;;;;5.71;59.92;101962.66;4873239;29;46602;-85
2023/03/03 09:33:23;;;;;;;;;76.50;56.50;;;;;5.69;60.96;101961.78;4876307;29;45451;-83
2023/03/03 09:36:20;;;;;;;;;74.00;56.75;;;;;5.73;60.15;101952.97;4847041;29;45463;-87
2023/03/03 09:38:46;;;;;;;;;69.25;55.25;;;;;5.77;60.49;101960.06;4846540;29;45344;-80
2023/03/03 09:41:33;;;;;;;;;74.00;57.75;;;;;5.74;60.02;101971.53;4861260;29;47687;-94
2023/03/03 09:44:11;;;;;;;;;69.25;57.75;;;;;5.66;60.11;101969.69;4866586;29;45302;-88
2023/03/03 09:46:48;;;;;;;;;73.00;57.25;;;;;5.60;60.69;101959.03;4870332;29;45456;-88
2023/03/03 09:49:39;;;;;;;;;76.25;60.25;;;;;5.56;60.35;101968.72;4871049;29;45339;-88
2023/03/03 09:52:34;;;;;;;;;70.00;55.50;;;;;5.53;60.30;101953.72;4862613;29;45385;-90
2023/03/03 09:55:06;;;;;;;;;74.50;58.25;;;;;5.64;60.34;101971.47;4869241;29;45319;-86
2023/03/03 09:57:59;;;;;;;;;68.75;54.75;;;;;5.64;60.83;101967.03;4864788;29;45510;-86
2023/03/03 10:00:37;;;;;;;;;77.00;57.75;;;;;5.60;60.39;101959.97;4879066;29;45744;-87
2023/03/03 10:03:38;;;;;;;;;75.25;56.75;;;;;5.53;61.29;101948.44;4864496;29;45434;-86
2023/03/03 10:06:47;;;;;;;;;75.50;56.00;;;;;5.67;60.68;101963.53;4846020;29;45305;-85
2023/03/03 10:09:40;;;;;;;;;69.75;54.25;;;;;5.67;60.21;101967.06;4839931;29;45488;-86
2023/03/03 10:12:06;;;;;;;;;72.00;51.75;;;;;5.84;60.01;101990.16;4847646;29;45475;-84
2023/03/03 10:14:50;;;;;;;;;67.33;52.00;;;;;5.91;60.40;101990.22;4853402;29;47133;-84
2023/03/03 10:17:34;;;;;;;;;67.25;56.75;;;;;5.99;60.30;101990.28;4870745;29;45319;-85
2023/03/03 10:20:02;;;;;;;;;70.50;54.50;;;;;6.05;59.94;101998.28;4860209;29;45472;-85
2023/03/03 10:22:50;;;;;;;;;69.25;56.00;;;;;6.08;59.51;101998.31;4849795;29;45336;-88
2023/03/03 10:25:41;;;;;;;;;64.25;51.00;;;;;5.92;59.90;101964.59;4851058;29;47241;-85
2023/03/03 10:28:29;;;;;;;;;64.75;50.25;;;;;6.17;59.18;102004.56;4863626;29;45943;-85
2023/03/03 10:31:38;;;;;;;;;70.00;53.50;;;;;6.14;59.32;101996.56;4880554;29;45500;-85
2023/03/03 10:34:32;;;;;;;;;67.25;53.00;;;;;6.19;59.57;102003.66;4813217;29;45468;-85
2023/03/03 10:37:32;;;;;;;;;64.25;53.00;;;;;6.17;59.23;102005.44;4795248;29;45603;-85
2023/03/03 10:40:06;;;;;;;;;68.25;54.50;;;;;6.10;59.17;102000.97;4856588;29;45593;-85
2023/03/03 10:42:31;;;;;;;;;69.25;52.75;;;;;6.19;59.31;102000.13;4878781;29;45367;-85
2023/03/03 10:45:16;;;;;;;;;66.25;52.75;;;;;6.10;60.17;101991.25;4868397;29;45414;-84
2023/03/03 10:48:03;;;;;;;;;69.25;53.75;;;;;6.32;59.81;102003.75;4886283;29;47138;-84
2023/03/03 10:50:50;;;;;;;;;65.25;54.50;;;;;6.42;59.71;102005.56;4903083;29;45411;-90
2023/03/03 10:53:40;;;;;;;;;62.25;51.25;;;;;6.45;59.15;102002.94;4884696;29;45414;-81
2023/03/03 10:56:26;;;;;;;;;61.00;48.25;;;;;6.51;59.43;101991.47;4893000;29;45319;-84
2023/03/03 10:59:19;;;;;;;;;63.50;50.75;;;;;6.60;59.34;102000.34;4891392;29;45457;-85
2023/03/03 11:02:05;;;;;;;;;71.00;55.75;;;;;6.66;58.83;101987.09;4885474;29;45894;-85
2023/03/03 11:04:50;;;;;;;;;73.00;55.75;;;;;6.77;59.07;101997.75;4893240;29;45207;-88
2023/03/03 11:07:32;;;;;;;;;71.75;54.00;;;;;6.84;58.71;102001.31;4892477;28;46053;-88
2023/03/03 11:10:01;;;;;;;;;66.75;49.75;;;;;6.87;58.64;101998.69;4885420;29;47502;-88
2023/03/03 11:12:55;;;;;;;;;67.50;54.25;;;;;6.70;58.78;101956.16;4890218;29;45369;-88
2023/03/03 11:15:24;;;;;;;;;66.50;52.75;;;;;7.03;58.65;101989.88;4896689;29;45470;-86
2023/03/03 11:18:08;;;;;;;;;61.50;49.75;;;;;7.11;58.40;101987.22;4904882;28;45478;-84
2023/03/03 11:20:37;;;;;;;;;74.50;57.00;;;;;7.17;57.83;101981.94;4899317;29;45229;-85
2023/03/03 11:23:36;;;;;;;;;64.75;49.75;;;;;7.18;57.80;101977.50;4891360;29;45828;-85
2023/03/03 11:26:11;;;;;;;;;68.00;54.25;;;;;7.21;58.07;101964.22;4890601;29;45403;-85
2023/03/03 11:28:57;;;;;;;;;62.25;51.00;;;;;7.39;57.74;101980.16;4892292;29;45347;-85
2023/03/03 11:31:41;;;;;;;;;68.00;53.00;;;;;7.48;57.58;101981.06;4888617;29;45319;-86
2023/03/03 11:34:53;;;;;;;;;63.25;48.75;;;;;7.59;57.28;101980.19;4890832;28;45531;-92
2023/03/03 11:37:37;;;;;;;;;68.25;51.00;;;;;7.66;57.28;101973.09;4884622;29;45451;-93